createdAt,value
2018-02-15T00:00:35.971Z,12.95
2018-02-15T00:03:03.393Z,13.77
2018-02-15T00:05:31.521Z,11.68
2018-02-15T00:07:58.949Z,12.93
2018-02-15T00:10:26.363Z,12.57
2018-02-15T00:12:53.777Z,14.93
2018-02-15T00:15:21.198Z,14.03
2018-02-15T00:17:48.617Z,13.32
2018-02-15T00:20:16.032Z,12.03
2018-02-15T00:22:43.457Z,13.80
2018-02-15T00:25:10.860Z,14.50
2018-02-15T00:27:38.291Z,12.83
2018-02-15T00:30:05.688Z,11.80
2018-02-15T00:32:33.103Z,15.30
2018-02-15T00:35:00.530Z,14.30
2018-02-15T00:37:27.933Z,14.97
2018-02-15T00:39:55.356Z,14.87
2018-02-15T00:42:22.759Z,15.20
2018-02-15T00:44:50.186Z,14.37
2018-02-15T00:47:17.649Z,16.27
2018-02-15T00:49:45.062Z,18.10
2018-02-15T00:52:12.468Z,17.00
2018-02-15T00:54:40.297Z,15.53
2018-02-15T00:57:07.701Z,15.68
2018-02-15T00:59:35.151Z,15.15
2018-02-15T01:02:03.561Z,15.52
2018-02-15T01:04:30.980Z,14.90
2018-02-15T01:06:58.398Z,14.75
2018-02-15T01:09:25.808Z,16.50
2018-02-15T01:11:53.837Z,16.30
2018-02-15T01:14:21.253Z,16.80
2018-02-15T01:16:48.664Z,16.90
2018-02-15T01:19:16.081Z,14.60
2018-02-15T01:21:43.493Z,14.60
2018-02-15T01:24:10.921Z,15.50
2018-02-15T01:26:38.333Z,13.75
2018-02-15T01:29:05.748Z,15.50
2018-02-15T01:31:33.161Z,16.30
2018-02-15T01:34:00.588Z,14.50
2018-02-15T01:36:28.005Z,13.93
2018-02-15T01:38:55.417Z,14.85
2018-02-15T01:41:22.836Z,13.83
2018-02-15T01:43:50.278Z,15.80
2018-02-15T01:46:17.672Z,13.95
2018-02-15T01:48:45.093Z,15.37
2018-02-15T01:51:12.513Z,15.07
2018-02-15T01:53:39.966Z,15.85
2018-02-15T01:56:07.348Z,13.73
2018-02-15T01:58:35.309Z,14.20
2018-02-15T02:01:02.728Z,13.53
2018-02-15T02:03:30.145Z,12.77
2018-02-15T02:05:57.563Z,16.43
2018-02-15T02:08:24.973Z,13.77
2018-02-15T02:10:52.379Z,15.17
2018-02-15T02:13:19.798Z,14.17
2018-02-15T02:15:47.287Z,15.23
2018-02-15T02:18:14.701Z,14.10
2018-02-15T02:20:42.122Z,15.13
2018-02-15T02:23:09.524Z,13.80
2018-02-15T02:25:36.956Z,14.65
2018-02-15T02:28:04.379Z,14.50
2018-02-15T02:30:31.809Z,13.47
2018-02-15T02:32:59.229Z,14.67
2018-02-15T02:35:26.649Z,14.70
2018-02-15T02:37:54.069Z,14.37
2018-02-15T02:40:21.476Z,14.97
2018-02-15T02:42:48.899Z,15.67
2018-02-15T02:45:16.309Z,13.77
2018-02-15T02:47:43.728Z,15.60
2018-02-15T02:50:11.133Z,14.90
2018-02-15T02:52:38.566Z,14.33
2018-02-15T02:55:05.977Z,16.33
2018-02-15T02:57:33.403Z,14.83
2018-02-15T03:00:00.813Z,14.70
2018-02-15T03:02:28.245Z,13.93
2018-02-15T03:04:55.653Z,16.40
2018-02-15T03:07:23.076Z,14.23
2018-02-15T03:09:50.500Z,15.47
2018-02-15T03:12:17.921Z,14.40
2018-02-15T03:14:45.329Z,14.13
2018-02-15T03:17:12.883Z,14.00
2018-02-15T03:19:40.292Z,14.97
2018-02-15T03:22:08.248Z,12.90
2018-02-15T03:24:35.659Z,12.20
2018-02-15T03:27:03.068Z,14.50
2018-02-15T03:29:30.479Z,12.80
2018-02-15T03:31:57.909Z,13.17
2018-02-15T03:34:25.316Z,14.43
2018-02-15T03:36:52.736Z,13.20
2018-02-15T03:39:20.136Z,11.70
2018-02-15T03:41:47.569Z,13.87
2018-02-15T03:44:14.985Z,11.95
2018-02-15T03:46:42.401Z,13.00
2018-02-15T03:49:09.823Z,12.27
2018-02-15T03:51:37.240Z,11.20
2018-02-15T03:54:04.648Z,13.47
2018-02-15T03:56:32.375Z,13.07
2018-02-15T03:58:59.808Z,13.10
2018-02-15T04:01:27.222Z,12.10
2018-02-15T04:03:54.649Z,14.10
2018-02-15T04:06:22.060Z,12.07
2018-02-15T04:08:49.474Z,14.00
2018-02-15T04:11:16.880Z,12.70
2018-02-15T04:13:44.303Z,16.27
2018-02-15T04:16:11.707Z,12.73
2018-02-15T04:18:39.117Z,11.87
2018-02-15T04:21:06.537Z,11.23
2018-02-15T04:23:33.961Z,11.10
2018-02-15T04:26:01.356Z,11.03
2018-02-15T04:28:28.776Z,11.87
2018-02-15T04:30:56.201Z,11.00
2018-02-15T04:33:23.616Z,12.43
2018-02-15T04:35:51.025Z,12.70
2018-02-15T04:38:18.445Z,12.55
2018-02-15T04:40:45.852Z,13.27
2018-02-15T04:43:13.273Z,12.80
2018-02-15T04:45:40.686Z,12.20
2018-02-15T04:48:08.109Z,14.60
2018-02-15T04:50:35.518Z,15.03
2018-02-15T04:53:02.937Z,16.80
2018-02-15T04:55:30.356Z,19.33
2018-02-15T04:57:57.839Z,16.80
2018-02-15T05:00:25.257Z,17.50
2018-02-15T05:02:52.665Z,18.97
2018-02-15T05:05:20.084Z,18.73
2018-02-15T05:07:47.516Z,17.83
2018-02-15T05:10:14.928Z,19.73
2018-02-15T05:12:43.025Z,17.15
2018-02-15T05:15:10.453Z,16.70
2018-02-15T05:17:37.868Z,15.43
2018-02-15T05:20:05.283Z,16.90
2018-02-15T05:22:32.700Z,16.60
2018-02-15T05:25:00.123Z,14.27
2018-02-15T05:27:27.537Z,14.40
2018-02-15T05:29:54.959Z,15.63
2018-02-15T05:32:22.364Z,14.03
2018-02-15T05:34:49.793Z,13.43
2018-02-15T05:37:17.193Z,12.17
2018-02-15T05:39:44.604Z,13.37
2018-02-15T05:42:12.004Z,14.63
2018-02-15T05:44:39.430Z,13.60
2018-02-15T05:47:06.840Z,13.50
2018-02-15T05:49:34.257Z,12.47
2018-02-15T05:52:01.666Z,12.75
2018-02-15T05:54:29.080Z,11.50
2018-02-15T05:56:56.500Z,12.40
2018-02-15T05:59:23.927Z,9.70
2018-02-15T06:01:51.328Z,12.93
2018-02-15T06:04:18.749Z,13.07
2018-02-15T06:06:46.164Z,11.55
2018-02-15T06:09:13.577Z,12.50
2018-02-15T06:11:40.988Z,11.23
2018-02-15T06:14:08.397Z,10.33
2018-02-15T06:16:35.812Z,10.43
2018-02-15T06:19:03.223Z,11.30
2018-02-15T06:21:30.644Z,11.30
2018-02-15T06:23:58.048Z,8.55
2018-02-15T06:26:25.452Z,9.40
2018-02-15T06:28:52.851Z,9.03
2018-02-15T06:31:20.282Z,10.30
2018-02-15T06:33:47.680Z,9.03
2018-02-15T06:36:15.107Z,10.40
2018-02-15T06:38:42.495Z,9.97
2018-02-15T06:41:09.912Z,9.80
2018-02-15T06:43:37.322Z,10.43
2018-02-15T06:46:04.730Z,10.20
2018-02-15T06:48:32.133Z,9.18
2018-02-15T06:50:59.558Z,10.07
2018-02-15T06:53:26.959Z,9.77
2018-02-15T06:55:54.368Z,10.77
2018-02-15T06:58:21.772Z,10.87
2018-02-15T07:00:49.956Z,10.50
2018-02-15T07:03:17.954Z,11.45
2018-02-15T07:05:45.380Z,11.57
2018-02-15T07:08:12.779Z,8.67
2018-02-15T07:10:40.190Z,8.88
2018-02-15T07:13:07.593Z,10.57
2018-02-15T07:15:35.004Z,9.70
2018-02-15T07:18:02.409Z,9.13
2018-02-15T07:20:29.802Z,9.70
2018-02-15T07:22:57.223Z,9.10
2018-02-15T07:25:24.618Z,9.50
2018-02-15T07:27:52.035Z,9.43
2018-02-15T07:30:19.432Z,9.17
2018-02-15T07:32:46.844Z,9.93
2018-02-15T07:35:14.237Z,8.43
2018-02-15T07:37:41.858Z,8.93
2018-02-15T07:40:09.269Z,10.57
2018-02-15T07:42:36.687Z,9.40
2018-02-15T07:45:04.084Z,8.63
2018-02-15T07:47:31.497Z,8.40
2018-02-15T07:49:58.900Z,7.67
2018-02-15T07:52:26.307Z,8.45
2018-02-15T07:54:53.717Z,8.83
2018-02-15T07:57:21.127Z,8.80
2018-02-15T07:59:48.542Z,10.32
2018-02-15T08:02:15.956Z,10.10
2018-02-15T08:04:43.369Z,8.93
2018-02-15T08:07:10.797Z,11.40
2018-02-15T08:09:38.206Z,10.93
2018-02-15T08:12:05.626Z,11.07
2018-02-15T08:14:33.037Z,10.13
2018-02-15T08:17:00.458Z,9.43
2018-02-15T08:19:27.864Z,10.33
2018-02-15T08:21:55.270Z,10.40
2018-02-15T08:24:22.693Z,11.50
2018-02-15T08:26:50.103Z,11.10
2018-02-15T08:29:17.526Z,11.50
2018-02-15T08:31:44.929Z,10.60
2018-02-15T08:34:12.350Z,13.07
2018-02-15T08:36:39.760Z,13.40
2018-02-15T08:39:07.175Z,13.17
2018-02-15T08:41:34.573Z,12.90
2018-02-15T08:44:02.008Z,14.93
2018-02-15T08:46:29.485Z,14.67
2018-02-15T08:48:56.903Z,16.20
2018-02-15T08:51:24.305Z,15.47
2018-02-15T08:53:51.722Z,14.47
2018-02-15T08:56:20.227Z,14.70
2018-02-15T08:58:47.684Z,13.90
2018-02-15T09:01:15.087Z,11.82
2018-02-15T09:03:42.516Z,12.17
2018-02-15T09:06:09.912Z,11.00
2018-02-15T09:08:37.327Z,12.40
2018-02-15T09:11:04.750Z,14.90
2018-02-15T09:13:32.151Z,12.63
2018-02-15T09:15:59.560Z,12.80
2018-02-15T09:18:26.985Z,11.43
2018-02-15T09:20:54.393Z,12.37
2018-02-15T09:23:21.802Z,11.73
2018-02-15T09:25:49.214Z,10.80
2018-02-15T09:28:16.625Z,11.90
2018-02-15T09:30:44.038Z,11.40
2018-02-15T09:33:11.456Z,10.60
2018-02-15T09:35:38.870Z,11.13
2018-02-15T09:38:06.273Z,10.80
2018-02-15T09:40:33.698Z,10.60
2018-02-15T09:43:01.100Z,12.05
2018-02-15T09:45:28.533Z,12.90
2018-02-15T09:47:55.928Z,12.17
2018-02-15T09:50:23.353Z,12.70
2018-02-15T09:52:50.753Z,12.30
2018-02-15T09:55:18.204Z,13.20
2018-02-15T09:57:45.617Z,12.47
2018-02-15T10:00:13.030Z,11.97
2018-02-15T10:02:40.437Z,12.43
2018-02-15T10:05:07.849Z,11.07
2018-02-15T10:07:35.885Z,11.97
2018-02-15T10:10:03.303Z,11.03
2018-02-15T10:12:30.700Z,10.67
2018-02-15T10:14:58.116Z,12.83
2018-02-15T10:17:25.520Z,12.47
2018-02-15T10:19:52.941Z,12.47
2018-02-15T10:22:20.349Z,13.53
2018-02-15T10:24:47.794Z,12.03
2018-02-15T10:27:15.201Z,12.00
2018-02-15T10:29:43.612Z,11.10
2018-02-15T10:32:11.026Z,11.93
2018-02-15T10:34:38.441Z,12.40
2018-02-15T10:37:05.851Z,13.63
2018-02-15T10:39:33.282Z,12.80
2018-02-15T10:42:00.684Z,12.45
2018-02-15T10:44:28.101Z,12.20
2018-02-15T10:46:56.044Z,12.65
2018-02-15T10:49:23.445Z,12.50
2018-02-15T10:51:50.856Z,13.30
2018-02-15T10:54:18.293Z,11.83
2018-02-15T10:56:45.704Z,13.27
2018-02-15T10:59:13.109Z,13.32
2018-02-15T11:01:41.542Z,13.13
2018-02-15T11:07:15.710Z,14.60
2018-02-15T11:09:43.116Z,12.20
2018-02-15T11:12:10.540Z,13.83
2018-02-15T11:14:37.947Z,14.43
2018-02-15T11:17:05.375Z,12.40
2018-02-15T11:19:32.782Z,12.70
2018-02-15T11:22:00.198Z,14.30
2018-02-15T11:24:27.615Z,12.30
2018-02-15T11:26:55.079Z,14.38
2018-02-15T11:29:22.498Z,14.93
2018-02-15T11:31:49.914Z,16.17
2018-02-15T11:34:17.341Z,14.75
2018-02-15T11:36:44.760Z,17.60
2018-02-15T11:39:12.185Z,16.60
2018-02-15T11:41:39.641Z,16.15
2018-02-15T11:44:07.045Z,17.90
2018-02-15T11:46:34.467Z,16.23
2018-02-15T11:49:01.878Z,13.77
2018-02-15T11:51:29.316Z,18.30
2018-02-15T11:53:56.741Z,19.40
2018-02-15T11:56:24.145Z,19.17
2018-02-15T11:58:51.632Z,16.10
2018-02-15T12:01:19.058Z,16.40
2018-02-15T12:03:46.512Z,16.67
2018-02-15T12:06:13.942Z,17.77
2018-02-15T12:08:41.369Z,20.70
2018-02-15T12:11:08.777Z,20.37
2018-02-15T12:13:36.227Z,21.27
2018-02-15T12:16:03.670Z,21.55
2018-02-15T12:18:31.177Z,21.07
2018-02-15T12:20:58.945Z,18.42
2018-02-15T12:23:26.392Z,20.83
2018-02-15T12:25:53.809Z,22.70
2018-02-15T12:28:21.249Z,21.70
2018-02-15T12:30:48.668Z,24.37
2018-02-15T12:33:16.084Z,23.00
2018-02-15T12:35:43.498Z,23.73
2018-02-15T12:38:10.906Z,21.80
2018-02-15T12:40:38.342Z,22.07
2018-02-15T12:43:05.773Z,21.50
2018-02-15T12:45:33.189Z,21.00
2018-02-15T12:48:00.646Z,21.17
2018-02-15T12:50:28.061Z,22.70
2018-02-15T12:52:55.464Z,22.17
2018-02-15T12:55:22.901Z,21.00
2018-02-15T12:57:50.312Z,27.10
2018-02-15T13:00:17.737Z,24.00
2018-02-15T13:02:45.172Z,25.08
2018-02-15T13:05:12.591Z,23.60
2018-02-15T13:07:40.013Z,21.47
2018-02-15T13:10:07.455Z,23.80
2018-02-15T13:12:46.757Z,27.13
2018-02-15T13:15:26.076Z,25.03
2018-02-15T13:17:53.491Z,20.70
2018-02-15T13:20:20.906Z,24.40
2018-02-15T13:22:48.439Z,24.70
2018-02-15T13:25:15.896Z,23.10
2018-02-15T13:27:55.233Z,22.07
2018-02-15T13:30:22.649Z,23.47
2018-02-15T13:32:50.069Z,22.15
2018-02-15T13:35:17.475Z,20.27
2018-02-15T13:37:44.894Z,25.00
2018-02-15T13:40:12.313Z,20.95
2018-02-15T13:42:39.736Z,22.50
2018-02-15T13:45:07.195Z,24.97
2018-02-15T13:47:34.608Z,22.40
2018-02-15T13:50:02.038Z,23.20
2018-02-15T13:52:29.460Z,23.80
2018-02-15T13:54:56.889Z,23.38
2018-02-15T13:57:24.304Z,20.87
2018-02-15T13:59:51.834Z,25.30
2018-02-15T14:02:19.251Z,22.23
2018-02-15T14:04:46.663Z,18.63
2018-02-15T14:07:14.137Z,21.30
2018-02-15T14:09:41.649Z,23.30
2018-02-15T14:12:09.072Z,22.70
2018-02-15T14:14:36.514Z,22.75
2018-02-15T14:17:03.951Z,21.13
2018-02-15T14:19:31.376Z,24.00
2018-02-15T14:21:58.823Z,22.45
2018-02-15T14:24:26.230Z,21.80
2018-02-15T14:26:53.660Z,21.47
2018-02-15T14:29:21.067Z,21.23
2018-02-15T14:31:48.495Z,19.90
2018-02-15T14:34:16.002Z,20.87
2018-02-15T14:36:43.505Z,20.48
2018-02-15T14:39:10.912Z,19.37
2018-02-15T14:41:38.366Z,21.40
2018-02-15T14:44:05.773Z,19.83
2018-02-15T14:46:33.942Z,19.77
2018-02-15T14:49:01.358Z,24.30
2018-02-15T14:51:28.778Z,21.03
2018-02-15T14:53:56.174Z,24.17
2018-02-15T14:56:23.613Z,23.53
2018-02-15T14:58:51.026Z,22.80
2018-02-15T15:01:18.433Z,23.07
2018-02-15T15:03:45.852Z,23.60
2018-02-15T15:06:13.274Z,24.17
2018-02-15T15:08:40.677Z,21.97
2018-02-15T15:11:08.120Z,22.60
2018-02-15T15:13:35.595Z,22.00
2018-02-15T15:16:03.029Z,22.87
2018-02-15T15:18:30.441Z,24.80
2018-02-15T15:20:57.861Z,24.47
2018-02-15T15:23:25.325Z,23.70
2018-02-15T15:25:52.742Z,25.00
2018-02-15T15:28:20.814Z,25.60
2018-02-15T15:30:48.256Z,24.00
2018-02-15T15:33:15.657Z,25.43
2018-02-15T15:35:43.077Z,22.90
2018-02-15T15:38:10.492Z,21.23
2018-02-15T15:40:37.942Z,24.97
2018-02-15T15:43:06.528Z,20.40
2018-02-15T15:45:33.933Z,23.55
2018-02-15T15:48:01.385Z,23.70
2018-02-15T15:50:28.793Z,23.53
2018-02-15T15:52:56.236Z,24.27
2018-02-15T15:55:23.632Z,23.37
2018-02-15T15:57:51.057Z,22.53
2018-02-15T16:00:18.490Z,24.67
2018-02-15T16:02:45.958Z,21.97
2018-02-15T16:05:13.377Z,24.23
2018-02-15T16:07:40.807Z,22.40
2018-02-15T16:10:08.241Z,21.13
2018-02-15T16:12:35.666Z,23.37
2018-02-15T16:15:03.074Z,24.30
2018-02-15T16:17:30.485Z,21.47
2018-02-15T16:19:57.892Z,25.07
2018-02-15T16:22:25.305Z,18.80
2018-02-15T16:24:52.719Z,22.50
2018-02-15T16:27:20.170Z,23.60
2018-02-15T16:29:47.592Z,18.20
2018-02-15T16:32:15.021Z,21.23
2018-02-15T16:34:42.431Z,22.50
2018-02-15T16:37:09.883Z,23.37
2018-02-15T16:39:38.028Z,21.83
2018-02-15T16:42:05.493Z,19.87
2018-02-15T16:44:32.897Z,19.43
2018-02-15T16:47:00.323Z,20.03
2018-02-15T16:49:27.735Z,21.87
2018-02-15T16:51:55.222Z,22.87
2018-02-15T16:54:22.629Z,23.40
2018-02-15T16:56:50.046Z,24.73
2018-02-15T16:59:17.534Z,17.35
2018-02-15T17:01:44.961Z,22.40
2018-02-15T17:04:14.330Z,25.50
2018-02-15T17:06:41.737Z,25.40
2018-02-15T17:09:09.168Z,26.00
2018-02-15T17:11:36.586Z,25.60
2018-02-15T17:14:04.085Z,26.33
2018-02-15T17:16:32.006Z,23.33
2018-02-15T17:18:59.421Z,23.13
2018-02-15T17:21:26.840Z,25.73
2018-02-15T17:23:54.252Z,22.70
2018-02-15T17:26:21.664Z,22.17
2018-02-15T17:28:49.083Z,23.17
2018-02-15T17:31:16.488Z,23.40
2018-02-15T17:33:43.918Z,23.90
2018-02-15T17:36:11.330Z,23.30
2018-02-15T17:38:39.773Z,25.90
2018-02-15T17:41:07.207Z,26.93
2018-02-15T17:43:34.626Z,28.10
2018-02-15T17:46:02.066Z,26.20
2018-02-15T17:48:29.491Z,28.33
2018-02-15T17:50:56.910Z,24.83
2018-02-15T17:53:24.325Z,25.63
2018-02-15T17:55:51.737Z,25.43
2018-02-15T17:58:19.145Z,26.30
2018-02-15T18:00:46.582Z,27.87
2018-02-15T18:03:14.041Z,29.20
2018-02-15T18:05:41.409Z,28.17
2018-02-15T18:08:08.822Z,28.57
2018-02-15T18:10:36.234Z,28.90
2018-02-15T18:13:03.647Z,32.40
2018-02-15T18:15:31.079Z,31.20
2018-02-15T18:17:58.512Z,32.40
2018-02-15T18:20:25.940Z,38.10
2018-02-15T18:22:53.340Z,43.57
2018-02-15T18:25:20.761Z,39.30
2018-02-15T18:27:48.164Z,36.87
2018-02-15T18:30:15.629Z,40.17
2018-02-15T18:32:43.052Z,40.63
2018-02-15T18:35:10.506Z,40.70
2018-02-15T18:37:37.950Z,38.97
2018-02-15T18:40:05.369Z,47.70
2018-02-15T18:42:32.784Z,51.00
2018-02-15T18:45:00.203Z,37.50
2018-02-15T18:47:27.676Z,40.80
2018-02-15T18:49:55.142Z,38.87
2018-02-15T18:52:22.599Z,39.20
2018-02-15T18:54:50.020Z,40.53
2018-02-15T18:57:17.424Z,35.13
2018-02-15T18:59:44.845Z,41.60
2018-02-15T19:02:12.753Z,39.83
2018-02-15T19:04:40.173Z,43.40
2018-02-15T19:07:07.582Z,40.33
2018-02-15T19:09:35.006Z,43.90
2018-02-15T19:12:02.425Z,41.30
2018-02-15T19:14:29.841Z,40.07
2018-02-15T19:16:57.254Z,43.23
2018-02-15T19:19:24.690Z,43.57
2018-02-15T19:21:52.139Z,45.47
2018-02-15T19:24:19.613Z,45.10
2018-02-15T19:26:47.045Z,47.70
2018-02-15T19:29:14.805Z,47.62
2018-02-15T19:31:42.238Z,51.47
2018-02-15T19:34:09.750Z,49.80
2018-02-15T19:36:37.202Z,54.80
2018-02-15T19:39:04.638Z,52.40
2018-02-15T19:41:32.120Z,48.53
2018-02-15T19:43:59.550Z,49.17
2018-02-15T19:46:26.969Z,50.23
2018-02-15T19:48:54.385Z,51.20
2018-02-15T19:51:21.825Z,50.87
2018-02-15T19:53:49.236Z,49.70
2018-02-15T19:56:16.665Z,48.00
2018-02-15T19:58:44.077Z,40.50
2018-02-15T20:01:11.568Z,48.50
2018-02-15T20:03:38.969Z,47.60
2018-02-15T20:06:06.389Z,44.53
2018-02-15T20:08:33.803Z,42.63
2018-02-15T20:11:01.213Z,47.47
2018-02-15T20:13:28.649Z,47.13
2018-02-15T20:15:56.060Z,46.37
2018-02-15T20:18:23.477Z,48.40
2018-02-15T20:20:50.897Z,51.57
2018-02-15T20:23:18.307Z,51.70
2018-02-15T20:28:47.066Z,55.15
2018-02-15T20:31:14.476Z,54.10
2018-02-15T20:33:41.881Z,56.50
2018-02-15T20:36:09.307Z,52.93
2018-02-15T20:38:42.274Z,58.17
2018-02-15T20:41:09.684Z,55.83
2018-02-15T20:43:37.092Z,58.38
2018-02-15T20:46:04.505Z,56.70
2018-02-15T20:48:31.942Z,54.57
2018-02-15T20:51:05.025Z,60.17
2018-02-15T20:53:38.106Z,53.85
2018-02-15T20:56:05.527Z,49.83
2018-02-15T20:58:32.924Z,40.53
2018-02-15T21:01:00.332Z,49.10
2018-02-15T21:03:27.737Z,45.77
2018-02-15T21:05:55.146Z,45.38
2018-02-15T21:08:22.554Z,49.53
2018-02-15T21:10:49.989Z,45.40
2018-02-15T21:13:17.401Z,46.33
2018-02-15T21:15:44.812Z,47.03
2018-02-15T21:18:12.212Z,44.57
2018-02-15T21:20:39.622Z,42.93
2018-02-15T21:23:07.044Z,44.90
2018-02-15T21:25:34.443Z,42.50
2018-02-15T21:28:01.861Z,47.53
2018-02-15T21:30:29.256Z,42.10
2018-02-15T21:32:56.680Z,42.90
2018-02-15T21:35:24.080Z,42.03
2018-02-15T21:37:51.492Z,43.83
2018-02-15T21:40:18.897Z,44.57
2018-02-15T21:42:46.320Z,44.47
2018-02-15T21:45:13.720Z,44.23
2018-02-15T21:47:41.140Z,45.53
2018-02-15T21:50:08.528Z,41.70
2018-02-15T21:52:35.951Z,44.03
2018-02-15T21:55:03.352Z,44.60
2018-02-15T21:57:30.770Z,46.67
2018-02-15T22:02:40.128Z,35.50
2018-02-15T22:05:07.520Z,37.00
2018-02-15T22:07:34.940Z,43.97
2018-02-15T22:10:02.347Z,43.50
2018-02-15T22:12:29.749Z,45.77
2018-02-15T22:14:57.149Z,42.97
2018-02-15T22:17:24.564Z,43.87
2018-02-15T22:19:52.803Z,50.83
2018-02-15T22:22:20.190Z,50.20
2018-02-15T22:24:47.589Z,49.23
2018-02-15T22:27:15.022Z,48.77
2018-02-15T22:29:42.428Z,48.17
2018-02-15T22:32:09.841Z,47.38
2018-02-15T22:34:37.254Z,51.90
2018-02-15T22:37:04.644Z,47.87
2018-02-15T22:39:32.065Z,52.28
2018-02-15T22:41:59.465Z,49.00
2018-02-15T22:44:26.876Z,48.90
2018-02-15T22:46:54.272Z,46.28
2018-02-15T22:49:21.684Z,49.40
2018-02-15T22:51:49.085Z,47.83
2018-02-15T22:54:16.502Z,47.45
2018-02-15T22:56:43.937Z,45.50
2018-02-15T22:59:11.317Z,42.13
2018-02-15T23:01:38.718Z,44.25
2018-02-15T23:04:06.133Z,41.30
2018-02-15T23:06:33.554Z,39.83
2018-02-15T23:09:00.971Z,38.50
2018-02-15T23:11:28.368Z,35.25
2018-02-15T23:13:55.815Z,36.07
2018-02-15T23:16:23.192Z,32.87
2018-02-15T23:18:50.605Z,37.87
2018-02-15T23:21:18.012Z,35.03
2018-02-15T23:23:45.512Z,38.87
2018-02-15T23:26:12.905Z,42.00
2018-02-15T23:28:40.325Z,37.33
2018-02-15T23:31:07.726Z,37.60
2018-02-15T23:33:35.147Z,37.53
2018-02-15T23:36:02.544Z,42.67
2018-02-15T23:38:29.952Z,38.70
2018-02-15T23:40:57.365Z,35.13
2018-02-15T23:43:25.003Z,37.40
2018-02-15T23:45:52.419Z,37.57
2018-02-15T23:48:19.826Z,41.85
2018-02-15T23:50:47.244Z,42.63
2018-02-15T23:53:14.635Z,31.60
2018-02-15T23:55:42.054Z,42.07
2018-02-15T23:58:09.452Z,39.73
